createdAt,value
2024-03-05T00:01:40.402Z,10.70
2024-03-05T00:04:07.697Z,10.70
2024-03-05T00:06:35.285Z,10.50
2024-03-05T00:09:02.382Z,10.50
2024-03-05T00:11:29.354Z,10.50
2024-03-05T00:13:57.349Z,10.50
2024-03-05T00:16:24.769Z,10.60
2024-03-05T00:18:51.850Z,10.70
2024-03-05T00:21:19.036Z,10.70
2024-03-05T00:23:46.000Z,10.70
2024-03-05T00:26:19.440Z,10.80
2024-03-05T00:28:46.772Z,10.70
2024-03-05T00:31:13.924Z,10.80
2024-03-05T00:33:40.826Z,10.80
2024-03-05T00:36:08.427Z,10.80
2024-03-05T00:38:37.082Z,10.80
2024-03-05T00:41:04.287Z,10.80
2024-03-05T00:43:31.296Z,10.80
2024-03-05T00:45:58.470Z,10.80
2024-03-05T00:48:25.602Z,10.80
2024-03-05T00:50:53.260Z,10.80
2024-03-05T00:53:21.857Z,10.80
2024-03-05T00:55:49.084Z,10.80
2024-03-05T00:58:16.357Z,10.80
2024-03-05T01:00:44.780Z,10.70
2024-03-05T01:03:12.480Z,10.80
2024-03-05T01:05:39.394Z,10.70
2024-03-05T01:08:06.963Z,10.70
2024-03-05T01:10:34.002Z,10.70
2024-03-05T01:13:00.972Z,10.70
2024-03-05T01:15:27.956Z,10.70
2024-03-05T01:17:55.505Z,10.70
2024-03-05T01:20:22.585Z,10.70
2024-03-05T01:22:50.075Z,10.70
2024-03-05T01:25:18.244Z,10.70
2024-03-05T01:27:45.391Z,10.70
2024-03-05T01:30:12.574Z,10.70
2024-03-05T01:32:40.061Z,10.70
2024-03-05T01:35:11.681Z,10.70
2024-03-05T01:37:42.722Z,10.70
2024-03-05T01:40:13.051Z,10.80
2024-03-05T01:42:40.207Z,10.70
2024-03-05T01:45:07.710Z,10.70
2024-03-05T01:47:35.066Z,10.70
2024-03-05T01:50:05.050Z,10.70
2024-03-05T01:52:32.594Z,10.70
2024-03-05T01:55:11.320Z,10.60
2024-03-05T01:57:38.923Z,10.60
2024-03-05T02:00:10.768Z,10.60
2024-03-05T02:02:38.456Z,10.60
2024-03-05T02:05:06.556Z,10.50
2024-03-05T02:07:34.062Z,10.50
2024-03-05T02:10:08.418Z,10.50
2024-03-05T02:12:37.516Z,10.50
2024-03-05T02:15:12.103Z,10.50
2024-03-05T02:17:43.751Z,10.40
2024-03-05T02:20:13.346Z,10.40
2024-03-05T02:22:41.021Z,10.40
2024-03-05T02:25:08.771Z,10.40
2024-03-05T02:27:38.200Z,10.30
2024-03-05T02:30:11.642Z,10.30
2024-03-05T02:32:43.133Z,10.30
2024-03-05T02:35:12.265Z,10.30
2024-03-05T02:37:40.582Z,10.30
2024-03-05T02:40:09.803Z,10.20
2024-03-05T02:42:37.773Z,10.20
2024-03-05T02:45:08.740Z,10.20
2024-03-05T02:47:45.702Z,10.20
2024-03-05T02:50:13.057Z,10.20
2024-03-05T02:52:41.419Z,10.20
2024-03-05T02:55:12.252Z,10.10
2024-03-05T02:57:42.907Z,10.10
2024-03-05T03:00:11.759Z,10.10
2024-03-05T03:02:39.077Z,10.10
2024-03-05T03:05:07.297Z,10.10
2024-03-05T03:07:34.368Z,10.10
2024-03-05T03:10:01.788Z,10.10
2024-03-05T03:12:29.008Z,10.00
2024-03-05T03:14:56.100Z,10.00
2024-03-05T03:17:23.031Z,10.00
2024-03-05T03:19:50.454Z,10.00
2024-03-05T03:22:17.542Z,10.10
2024-03-05T03:24:44.565Z,10.00
2024-03-05T03:27:12.753Z,10.00
2024-03-05T03:29:41.866Z,10.00
2024-03-05T03:32:11.294Z,10.00
2024-03-05T03:34:41.642Z,10.00
2024-03-05T03:37:09.328Z,10.00
2024-03-05T03:39:36.999Z,9.90
2024-03-05T03:42:04.171Z,9.90
2024-03-05T03:44:31.212Z,10.00
2024-03-05T03:46:58.284Z,10.00
2024-03-05T03:49:25.512Z,10.00
2024-03-05T03:51:55.679Z,10.00
2024-03-05T03:54:23.021Z,10.00
2024-03-05T03:56:50.431Z,9.90
2024-03-05T03:59:17.620Z,9.90
2024-03-05T04:01:48.998Z,9.90
2024-03-05T04:04:16.041Z,9.90
2024-03-05T04:06:43.970Z,9.90
2024-03-05T04:09:14.868Z,9.80
2024-03-05T04:11:43.380Z,9.80
2024-03-05T04:14:10.690Z,9.80
2024-03-05T04:16:41.807Z,9.80
2024-03-05T04:19:09.847Z,9.80
2024-03-05T04:21:49.463Z,9.80
2024-03-05T04:24:16.427Z,9.80
2024-03-05T04:26:44.138Z,9.80
2024-03-05T04:29:17.945Z,9.80
2024-03-05T04:31:54.104Z,9.80
2024-03-05T04:34:22.119Z,9.70
2024-03-05T04:36:54.886Z,9.70
2024-03-05T04:39:23.314Z,9.70
2024-03-05T04:41:50.278Z,9.70
2024-03-05T04:44:17.715Z,9.60
2024-03-05T04:46:44.754Z,9.60
2024-03-05T04:49:11.767Z,9.60
2024-03-05T04:51:38.740Z,9.60
2024-03-05T04:54:05.828Z,9.60
2024-03-05T04:56:32.953Z,9.60
2024-03-05T04:59:01.505Z,9.60
2024-03-05T05:01:28.645Z,9.50
2024-03-05T05:03:55.757Z,9.60
2024-03-05T05:06:22.732Z,9.50
2024-03-05T05:08:50.530Z,9.60
2024-03-05T05:11:17.764Z,9.50
2024-03-05T05:13:45.850Z,9.50
2024-03-05T05:16:13.494Z,9.50
2024-03-05T05:18:40.412Z,9.40
2024-03-05T05:21:08.913Z,9.40
2024-03-05T05:23:36.283Z,9.40
2024-03-05T05:26:03.428Z,9.40
2024-03-05T05:28:30.610Z,9.40
2024-03-05T05:30:57.855Z,9.40
2024-03-05T05:33:26.312Z,9.30
2024-03-05T05:35:53.425Z,9.30
2024-03-05T05:38:20.376Z,9.30
2024-03-05T05:40:47.486Z,9.30
2024-03-05T05:43:15.145Z,9.30
2024-03-05T05:45:42.205Z,9.30
2024-03-05T05:48:27.722Z,9.30
2024-03-05T05:50:56.671Z,9.30
2024-03-05T05:53:24.171Z,9.20
2024-03-05T05:55:51.172Z,9.20
2024-03-05T05:58:18.195Z,9.20
2024-03-05T06:00:45.702Z,9.10
2024-03-05T06:03:12.912Z,9.10
2024-03-05T06:05:43.591Z,9.10
2024-03-05T06:08:13.503Z,9.10
2024-03-05T06:10:43.364Z,9.10
2024-03-05T06:13:11.173Z,9.10
2024-03-05T06:15:39.855Z,9.10
2024-03-05T06:18:07.512Z,9.10
2024-03-05T06:20:34.920Z,9.10
2024-03-05T06:23:02.404Z,9.10
2024-03-05T06:25:29.714Z,9.10
2024-03-05T06:27:57.717Z,9.10
2024-03-05T06:30:24.700Z,9.10
2024-03-05T06:32:53.059Z,9.00
2024-03-05T06:35:23.940Z,9.00
2024-03-05T06:37:53.261Z,8.90
2024-03-05T06:40:21.763Z,8.90
2024-03-05T06:43:05.915Z,8.80
2024-03-05T06:45:36.768Z,8.80
2024-03-05T06:50:39.487Z,8.70
2024-03-05T06:53:26.160Z,8.70
2024-03-05T06:56:12.660Z,8.70
2024-03-05T06:58:49.543Z,8.70
2024-03-05T07:01:17.164Z,8.70
2024-03-05T07:03:44.453Z,8.70
2024-03-05T07:06:13.588Z,8.70
2024-03-05T07:08:42.501Z,8.80
2024-03-05T07:11:11.642Z,8.80
2024-03-05T07:13:42.298Z,8.90
2024-03-05T07:16:17.605Z,8.90
2024-03-05T07:18:46.155Z,8.90
2024-03-05T07:21:13.164Z,8.90
2024-03-05T07:23:45.358Z,8.90
2024-03-05T07:26:14.224Z,8.90
2024-03-05T07:28:42.212Z,8.90
2024-03-05T07:31:09.314Z,9.00
2024-03-05T07:33:36.923Z,9.00
2024-03-05T07:36:04.477Z,9.00
2024-03-05T07:38:32.376Z,9.10
2024-03-05T07:40:59.329Z,9.10
2024-03-05T07:43:26.382Z,9.10
2024-03-05T07:45:53.358Z,9.10
2024-03-05T07:48:20.267Z,9.10
2024-03-05T07:50:47.978Z,9.10
2024-03-05T07:53:15.104Z,9.10
2024-03-05T07:55:46.711Z,9.10
2024-03-05T07:58:14.944Z,9.10
2024-03-05T08:00:42.405Z,9.20
2024-03-05T08:03:09.489Z,9.20
2024-03-05T08:05:36.547Z,9.30
2024-03-05T08:08:05.339Z,9.30
2024-03-05T08:10:35.390Z,9.30
2024-03-05T08:13:03.256Z,9.40
2024-03-05T08:15:30.305Z,9.30
2024-03-05T08:17:57.867Z,9.30
2024-03-05T08:20:28.467Z,9.30
2024-03-05T08:22:56.791Z,9.30
2024-03-05T08:25:24.874Z,9.40
2024-03-05T08:27:56.400Z,9.40
2024-03-05T08:30:25.256Z,9.50
2024-03-05T08:32:53.929Z,9.60
2024-03-05T08:35:21.578Z,9.60
2024-03-05T08:37:50.335Z,9.70
2024-03-05T08:40:22.367Z,9.70
2024-03-05T08:42:57.910Z,9.70
2024-03-05T08:45:25.328Z,9.70
2024-03-05T08:47:55.252Z,9.70
2024-03-05T08:50:23.476Z,9.70
2024-03-05T08:52:50.719Z,9.80
2024-03-05T08:55:19.486Z,9.80
2024-03-05T08:57:46.956Z,9.90
2024-03-05T09:00:32.050Z,9.90
2024-03-05T09:03:09.357Z,9.90
2024-03-05T09:05:37.180Z,9.90
2024-03-05T09:08:06.347Z,9.90
2024-03-05T09:10:35.308Z,10.00
2024-03-05T09:13:02.987Z,10.00
2024-03-05T09:15:31.321Z,10.00
2024-03-05T09:17:58.742Z,10.00
2024-03-05T09:20:25.850Z,10.00
2024-03-05T09:22:52.898Z,10.00
2024-03-05T09:25:20.332Z,10.00
2024-03-05T09:27:47.593Z,9.90
2024-03-05T09:30:16.981Z,9.90
2024-03-05T09:32:45.795Z,10.00
2024-03-05T09:35:14.454Z,10.00
2024-03-05T09:37:44.514Z,10.10
2024-03-05T09:40:19.063Z,10.20
2024-03-05T09:42:47.663Z,10.20
2024-03-05T09:45:19.491Z,10.20
2024-03-05T09:47:48.762Z,10.20
2024-03-05T09:50:18.280Z,10.30
2024-03-05T09:52:48.710Z,10.40
2024-03-05T09:55:18.127Z,10.50
2024-03-05T09:57:49.093Z,10.50
2024-03-05T10:00:18.905Z,10.60
2024-03-05T10:02:49.368Z,10.60
2024-03-05T10:05:17.775Z,10.60
2024-03-05T10:07:50.205Z,10.70
2024-03-05T10:10:22.426Z,10.90
2024-03-05T10:12:51.548Z,11.00
2024-03-05T10:15:22.570Z,11.10
2024-03-05T10:17:53.938Z,11.20
2024-03-05T10:20:28.908Z,11.40
2024-03-05T10:22:59.555Z,11.60
2024-03-05T10:25:28.553Z,11.70
2024-03-05T10:27:56.464Z,11.90
2024-03-05T10:30:25.647Z,12.10
2024-03-05T10:33:04.170Z,12.20
2024-03-05T10:35:33.073Z,12.20
2024-03-05T10:38:05.185Z,12.20
2024-03-05T10:40:33.604Z,12.20
2024-03-05T10:43:02.516Z,12.30
2024-03-05T10:45:30.085Z,12.40
2024-03-05T10:48:00.786Z,12.60
2024-03-05T10:50:29.697Z,12.80
2024-03-05T10:52:58.011Z,13.00
2024-03-05T10:55:26.266Z,13.10
2024-03-05T10:58:14.361Z,13.30
2024-03-05T11:00:44.664Z,13.40
2024-03-05T11:03:14.229Z,13.40
2024-03-05T11:05:52.140Z,13.40
2024-03-05T11:08:28.523Z,13.50
2024-03-05T11:11:07.356Z,13.50
2024-03-05T11:13:37.165Z,13.60
2024-03-05T11:16:05.524Z,13.60
2024-03-05T11:18:37.232Z,13.70
2024-03-05T11:21:12.222Z,13.70
2024-03-05T11:23:47.833Z,13.90
2024-03-05T11:26:19.271Z,14.10
2024-03-05T11:28:46.298Z,14.20
2024-03-05T11:31:19.785Z,14.30
2024-03-05T11:34:04.845Z,14.30
2024-03-05T11:36:35.676Z,14.30
2024-03-05T11:39:10.810Z,14.20
2024-03-05T11:41:46.151Z,14.00
2024-03-05T11:44:14.986Z,14.00
2024-03-05T11:46:43.389Z,14.00
2024-03-05T11:49:11.653Z,14.20
2024-03-05T11:51:41.303Z,14.40
2024-03-05T11:54:12.604Z,14.50
2024-03-05T11:56:41.474Z,14.50
2024-03-05T11:59:09.788Z,14.50
2024-03-05T12:01:39.400Z,14.60
2024-03-05T12:04:11.096Z,14.60
2024-03-05T12:06:40.435Z,14.60
2024-03-05T12:09:23.873Z,14.50
2024-03-05T12:12:07.116Z,14.40
2024-03-05T12:14:36.037Z,14.20
2024-03-05T12:17:08.227Z,14.10
2024-03-05T12:19:35.958Z,14.00
2024-03-05T12:22:03.291Z,13.90
2024-03-05T12:24:31.552Z,13.70
2024-03-05T12:26:59.957Z,13.50
2024-03-05T12:29:35.042Z,13.40
2024-03-05T12:32:13.940Z,13.40
2024-03-05T12:34:44.260Z,13.40
2024-03-05T12:37:12.456Z,13.60
2024-03-05T12:39:44.105Z,13.70
2024-03-05T12:42:12.735Z,13.80
2024-03-05T12:44:39.714Z,13.80
2024-03-05T12:47:19.741Z,13.90
2024-03-05T12:49:48.485Z,13.90
2024-03-05T12:52:20.827Z,14.10
2024-03-05T12:54:58.883Z,14.10
2024-03-05T12:57:27.897Z,14.20
2024-03-05T12:59:57.404Z,14.30
2024-03-05T13:02:24.653Z,14.40
2024-03-05T13:04:53.084Z,14.40
2024-03-05T13:07:22.539Z,14.30
2024-03-05T13:09:49.727Z,14.20
2024-03-05T13:12:18.243Z,14.20
2024-03-05T13:14:47.691Z,14.30
2024-03-05T13:17:14.662Z,14.40
2024-03-05T13:19:41.819Z,14.50
2024-03-05T13:22:08.808Z,14.50
2024-03-05T13:24:35.995Z,14.60
2024-03-05T13:27:05.243Z,14.70
2024-03-05T13:29:32.469Z,14.90
2024-03-05T13:32:00.818Z,15.00
2024-03-05T13:34:28.944Z,15.00
2024-03-05T13:36:56.310Z,15.00
2024-03-05T13:39:24.046Z,15.20
2024-03-05T13:41:55.312Z,15.40
2024-03-05T13:44:24.087Z,15.50
2024-03-05T13:46:52.768Z,15.60
2024-03-05T13:49:21.438Z,15.60
2024-03-05T13:51:49.264Z,15.60
2024-03-05T13:54:16.534Z,15.70
2024-03-05T13:56:44.640Z,15.60
2024-03-05T13:59:12.610Z,15.50
2024-03-05T14:01:40.754Z,15.30
2024-03-05T14:04:11.128Z,15.10
2024-03-05T14:06:39.715Z,15.00
2024-03-05T14:09:10.428Z,14.90
2024-03-05T14:11:41.415Z,14.90
2024-03-05T14:14:09.364Z,14.80
2024-03-05T14:16:38.707Z,14.80
2024-03-05T14:19:05.823Z,14.90
2024-03-05T14:21:33.334Z,15.00
2024-03-05T14:24:00.547Z,15.10
2024-03-05T14:26:28.124Z,15.30
2024-03-05T14:28:55.383Z,15.30
2024-03-05T14:31:22.498Z,15.30
2024-03-05T14:33:49.769Z,15.30
2024-03-05T14:36:22.531Z,15.10
2024-03-05T14:38:50.066Z,15.00
2024-03-05T14:41:17.699Z,14.90
2024-03-05T14:43:44.932Z,14.90
2024-03-05T14:46:12.175Z,14.90
2024-03-05T14:48:41.295Z,14.90
2024-03-05T14:51:11.742Z,14.90
2024-03-05T14:53:41.947Z,14.90
2024-03-05T14:56:09.009Z,14.90
2024-03-05T14:58:36.231Z,14.90
2024-03-05T15:01:03.175Z,14.80
2024-03-05T15:03:30.681Z,14.80
2024-03-05T15:05:57.917Z,14.80
2024-03-05T15:08:24.896Z,14.80
2024-03-05T15:10:52.045Z,14.80
2024-03-05T15:13:19.023Z,14.90
2024-03-05T15:15:46.131Z,15.00
2024-03-05T15:18:13.371Z,15.10
2024-03-05T15:20:40.415Z,15.00
2024-03-05T15:23:07.576Z,14.90
2024-03-05T15:25:36.616Z,14.90
2024-03-05T15:28:05.184Z,14.80
2024-03-05T15:30:36.103Z,14.80
2024-03-05T15:33:03.973Z,14.80
2024-03-05T15:35:31.409Z,14.60
2024-03-05T15:38:01.719Z,14.70
2024-03-05T15:40:28.849Z,14.50
2024-03-05T15:42:57.455Z,14.60
2024-03-05T15:45:29.484Z,14.50
2024-03-05T15:47:57.725Z,14.40
2024-03-05T15:50:30.469Z,14.30
2024-03-05T15:53:00.939Z,14.20
2024-03-05T15:55:30.060Z,14.10
2024-03-05T15:58:04.569Z,14.10
2024-03-05T16:00:36.590Z,14.00
2024-03-05T16:03:08.058Z,13.90
2024-03-05T16:05:55.407Z,13.90
2024-03-05T16:08:31.591Z,13.80
2024-03-05T16:11:00.521Z,13.80
2024-03-05T16:13:31.365Z,13.70
2024-03-05T16:15:58.836Z,13.70
2024-03-05T16:18:28.942Z,13.60
2024-03-05T16:20:56.061Z,13.60
2024-03-05T16:23:23.176Z,13.60
2024-03-05T16:25:52.514Z,13.50
2024-03-05T16:28:21.712Z,13.40
2024-03-05T16:30:49.404Z,13.40
2024-03-05T16:33:16.618Z,13.30
2024-03-05T16:35:44.445Z,13.30
2024-03-05T16:38:15.236Z,13.20
2024-03-05T16:40:42.674Z,13.10
2024-03-05T16:43:11.325Z,13.10
2024-03-05T16:45:39.541Z,13.00
2024-03-05T16:48:10.280Z,13.00
2024-03-05T16:50:40.181Z,13.00
2024-03-05T16:53:09.949Z,12.90
2024-03-05T16:55:37.809Z,12.80
2024-03-05T16:58:11.271Z,12.70
2024-03-05T17:00:48.585Z,12.60
2024-03-05T17:03:16.332Z,12.50
2024-03-05T17:05:47.817Z,12.50
2024-03-05T17:08:16.137Z,12.40
2024-03-05T17:10:45.513Z,12.40
2024-03-05T17:13:20.138Z,12.40
2024-03-05T17:15:57.527Z,12.30
2024-03-05T17:18:25.450Z,12.30
2024-03-05T17:20:54.587Z,12.20
2024-03-05T17:23:25.821Z,12.20
2024-03-05T17:25:55.861Z,12.10
2024-03-05T17:28:23.310Z,12.10
2024-03-05T17:30:50.383Z,12.10
2024-03-05T17:33:17.605Z,12.10
2024-03-05T17:35:44.760Z,12.10
2024-03-05T17:38:14.508Z,12.20
2024-03-05T17:40:42.370Z,12.10
2024-03-05T17:43:10.921Z,12.10
2024-03-05T17:45:37.999Z,12.10
2024-03-05T17:48:08.508Z,12.10
2024-03-05T17:50:36.564Z,12.20
2024-03-05T17:53:06.750Z,12.10
2024-03-05T17:55:36.457Z,12.20
2024-03-05T17:58:05.604Z,12.10
2024-03-05T18:00:45.961Z,12.10
2024-03-05T18:03:15.249Z,12.10
2024-03-05T18:05:46.525Z,12.10
2024-03-05T18:08:14.230Z,12.10
2024-03-05T18:10:42.133Z,12.10
2024-03-05T18:13:10.530Z,12.10
2024-03-05T18:15:38.084Z,12.00
2024-03-05T18:18:07.425Z,12.00
2024-03-05T18:20:36.124Z,12.00
2024-03-05T18:23:06.081Z,12.00
2024-03-05T18:25:37.086Z,12.00
2024-03-05T18:28:05.274Z,11.90
2024-03-05T18:30:36.281Z,11.90
2024-03-05T18:33:08.927Z,11.90
2024-03-05T18:35:37.765Z,11.90
2024-03-05T18:38:20.408Z,11.80
2024-03-05T18:40:55.326Z,11.80
2024-03-05T18:43:22.906Z,11.80
2024-03-05T18:45:51.106Z,11.70
2024-03-05T18:48:19.148Z,11.70
2024-03-05T18:50:48.590Z,11.70
2024-03-05T18:53:17.195Z,11.60
2024-03-05T18:55:45.189Z,11.60
2024-03-05T18:58:13.144Z,11.50
2024-03-05T19:00:41.337Z,11.40
2024-03-05T19:03:09.006Z,11.30
2024-03-05T19:05:36.340Z,11.20
2024-03-05T19:08:06.213Z,11.20
2024-03-05T19:10:33.378Z,11.10
2024-03-05T19:13:00.538Z,10.90
2024-03-05T19:15:29.264Z,10.60
2024-03-05T19:17:56.990Z,10.40
2024-03-05T19:20:24.300Z,10.10
2024-03-05T19:22:51.400Z,10.00
2024-03-05T19:25:21.863Z,10.00
2024-03-05T19:27:50.473Z,10.00
2024-03-05T19:30:18.547Z,10.00
2024-03-05T19:32:47.237Z,10.00
2024-03-05T19:35:18.194Z,9.90
2024-03-05T19:37:49.604Z,9.90
2024-03-05T19:40:21.405Z,9.90
2024-03-05T19:42:54.527Z,9.60
2024-03-05T19:45:22.280Z,9.50
2024-03-05T19:47:50.165Z,9.40
2024-03-05T19:50:18.998Z,9.30
2024-03-05T19:52:49.465Z,9.30
2024-03-05T19:55:16.864Z,9.40
2024-03-05T19:57:45.028Z,9.40
2024-03-05T20:00:18.670Z,9.40
2024-03-05T20:02:49.177Z,9.30
2024-03-05T20:05:17.106Z,9.30
2024-03-05T20:07:44.433Z,9.30
2024-03-05T20:10:12.293Z,9.20
2024-03-05T20:12:40.247Z,9.10
2024-03-05T20:15:12.401Z,9.10
2024-03-05T20:17:40.760Z,9.00
2024-03-05T20:20:10.633Z,9.00
2024-03-05T20:22:39.302Z,8.90
2024-03-05T20:25:07.956Z,8.90
2024-03-05T20:27:35.509Z,8.80
2024-03-05T20:30:05.215Z,8.80
2024-03-05T20:32:32.475Z,8.80
2024-03-05T20:35:00.573Z,8.70
2024-03-05T20:37:28.951Z,8.70
2024-03-05T20:39:57.982Z,8.70
2024-03-05T20:42:25.018Z,8.70
2024-03-05T20:44:52.001Z,8.60
2024-03-05T20:47:20.309Z,8.60
2024-03-05T20:49:47.599Z,8.50
2024-03-05T20:52:14.996Z,8.50
2024-03-05T20:54:41.991Z,8.50
2024-03-05T20:57:09.616Z,8.50
2024-03-05T20:59:36.578Z,8.50
2024-03-05T21:02:10.635Z,8.50
2024-03-05T21:04:39.045Z,8.50
2024-03-05T21:07:06.591Z,8.60
2024-03-05T21:09:35.502Z,8.60
2024-03-05T21:12:04.804Z,8.60
2024-03-05T21:14:32.390Z,8.60
2024-03-05T21:16:59.851Z,8.60
2024-03-05T21:19:29.761Z,8.70
2024-03-05T21:21:57.681Z,8.70
2024-03-05T21:24:27.435Z,8.70
2024-03-05T21:27:09.880Z,8.70
2024-03-05T21:29:41.593Z,8.70
2024-03-05T21:32:08.590Z,8.70
2024-03-05T21:34:35.891Z,8.80
2024-03-05T21:37:02.860Z,8.80
2024-03-05T21:39:29.840Z,8.80
2024-03-05T21:41:56.937Z,8.80
2024-03-05T21:44:34.494Z,8.80
2024-03-05T21:47:08.788Z,8.80
2024-03-05T21:49:36.378Z,8.80
2024-03-05T21:52:03.577Z,8.80
2024-03-05T21:54:30.846Z,8.80
2024-03-05T21:56:58.240Z,8.80
2024-03-05T21:59:26.368Z,8.70
2024-03-05T22:01:54.928Z,8.70
2024-03-05T22:04:22.036Z,8.70
2024-03-05T22:06:50.054Z,8.60
2024-03-05T22:09:20.123Z,8.60
2024-03-05T22:11:48.258Z,8.60
2024-03-05T22:14:15.730Z,8.50
2024-03-05T22:16:43.314Z,8.50
2024-03-05T22:19:10.544Z,8.40
2024-03-05T22:21:38.635Z,8.40
2024-03-05T22:24:09.758Z,8.40
2024-03-05T22:26:38.517Z,8.40
2024-03-05T22:29:05.993Z,8.30
2024-03-05T22:31:33.096Z,8.30
2024-03-05T22:34:00.644Z,8.30
2024-03-05T22:36:27.677Z,8.30
2024-03-05T22:38:54.663Z,8.30
2024-03-05T22:41:21.858Z,8.30
2024-03-05T22:43:49.910Z,8.30
2024-03-05T22:46:17.001Z,8.40
2024-03-05T22:48:43.965Z,8.40
2024-03-05T22:51:15.462Z,8.50
2024-03-05T22:53:42.812Z,8.50
2024-03-05T22:56:10.532Z,8.50
2024-03-05T22:58:38.709Z,8.60
2024-03-05T23:01:06.601Z,8.60
2024-03-05T23:03:34.164Z,8.60
2024-03-05T23:06:08.098Z,8.60
2024-03-05T23:08:40.007Z,8.60
2024-03-05T23:11:07.233Z,8.60
2024-03-05T23:13:34.475Z,8.60
2024-03-05T23:16:02.221Z,8.60
2024-03-05T23:18:29.367Z,8.60
2024-03-05T23:20:56.377Z,8.60
2024-03-05T23:23:23.447Z,8.60
2024-03-05T23:25:50.869Z,8.50
2024-03-05T23:28:19.611Z,8.50
2024-03-05T23:30:47.107Z,8.50
2024-03-05T23:33:14.307Z,8.40
2024-03-05T23:35:41.252Z,8.40
2024-03-05T23:38:08.473Z,8.30
2024-03-05T23:40:35.787Z,8.20
2024-03-05T23:43:03.040Z,8.20
2024-03-05T23:45:29.927Z,8.10
2024-03-05T23:47:57.255Z,8.20
2024-03-05T23:50:24.320Z,8.20
2024-03-05T23:52:51.515Z,8.20
2024-03-05T23:55:19.883Z,8.20
2024-03-05T23:57:47.270Z,8.20
